sensor_id;sensor_type;location;lat;lon;timestamp;P1;durP1;ratioP1;P2;durP2;ratioP2
73684;SDS011;61985;51.070;14.064;2023-02-15T00:01:09;50.67;;;22.00;;
73684;SDS011;61985;51.070;14.064;2023-02-15T00:03:35;59.35;;;24.20;;
73684;SDS011;61985;51.070;14.064;2023-02-15T00:06:02;59.63;;;22.90;;
73684;SDS011;61985;51.070;14.064;2023-02-15T00:08:27;57.50;;;21.90;;
73684;SDS011;61985;51.070;14.064;2023-02-15T00:10:53;61.58;;;24.50;;
73684;SDS011;61985;51.070;14.064;2023-02-15T00:13:18;63.15;;;22.95;;
73684;SDS011;61985;51.070;14.064;2023-02-15T00:15:44;49.65;;;20.70;;
73684;SDS011;61985;51.070;14.064;2023-02-15T00:18:09;56.53;;;24.40;;
73684;SDS011;61985;51.070;14.064;2023-02-15T00:20:34;57.58;;;23.00;;
73684;SDS011;61985;51.070;14.064;2023-02-15T00:23:00;53.10;;;22.65;;
73684;SDS011;61985;51.070;14.064;2023-02-15T00:25:25;50.33;;;20.83;;
73684;SDS011;61985;51.070;14.064;2023-02-15T00:27:50;55.72;;;21.30;;
73684;SDS011;61985;51.070;14.064;2023-02-15T00:30:16;58.10;;;21.70;;
73684;SDS011;61985;51.070;14.064;2023-02-15T00:32:41;64.72;;;22.98;;
73684;SDS011;61985;51.070;14.064;2023-02-15T00:35:07;58.53;;;23.80;;
73684;SDS011;61985;51.070;14.064;2023-02-15T00:37:33;55.28;;;22.70;;
73684;SDS011;61985;51.070;14.064;2023-02-15T00:39:58;55.90;;;23.35;;
73684;SDS011;61985;51.070;14.064;2023-02-15T00:42:24;55.15;;;20.83;;
73684;SDS011;61985;51.070;14.064;2023-02-15T00:44:49;57.38;;;23.15;;
73684;SDS011;61985;51.070;14.064;2023-02-15T00:47:14;63.50;;;23.58;;
73684;SDS011;61985;51.070;14.064;2023-02-15T00:49:40;63.03;;;22.73;;
73684;SDS011;61985;51.070;14.064;2023-02-15T00:52:05;52.80;;;21.58;;
73684;SDS011;61985;51.070;14.064;2023-02-15T00:54:30;68.53;;;25.48;;
73684;SDS011;61985;51.070;14.064;2023-02-15T00:56:55;57.10;;;23.42;;
73684;SDS011;61985;51.070;14.064;2023-02-15T00:59:21;51.05;;;19.65;;
73684;SDS011;61985;51.070;14.064;2023-02-15T01:01:46;55.30;;;21.92;;
73684;SDS011;61985;51.070;14.064;2023-02-15T01:04:11;61.25;;;23.23;;
73684;SDS011;61985;51.070;14.064;2023-02-15T01:06:37;58.30;;;22.10;;
73684;SDS011;61985;51.070;14.064;2023-02-15T01:09:02;64.93;;;23.33;;
73684;SDS011;61985;51.070;14.064;2023-02-15T01:11:27;58.55;;;20.92;;
73684;SDS011;61985;51.070;14.064;2023-02-15T01:13:54;63.25;;;22.83;;
73684;SDS011;61985;51.070;14.064;2023-02-15T01:16:22;58.50;;;23.77;;
73684;SDS011;61985;51.070;14.064;2023-02-15T01:18:48;54.17;;;22.25;;
73684;SDS011;61985;51.070;14.064;2023-02-15T01:21:14;62.70;;;24.08;;
73684;SDS011;61985;51.070;14.064;2023-02-15T01:23:42;59.33;;;24.05;;
73684;SDS011;61985;51.070;14.064;2023-02-15T01:26:08;55.17;;;22.08;;
73684;SDS011;61985;51.070;14.064;2023-02-15T01:28:34;63.03;;;22.27;;
73684;SDS011;61985;51.070;14.064;2023-02-15T01:31:03;57.10;;;22.05;;
73684;SDS011;61985;51.070;14.064;2023-02-15T01:33:33;61.70;;;24.23;;
73684;SDS011;61985;51.070;14.064;2023-02-15T01:36:00;59.05;;;22.92;;
73684;SDS011;61985;51.070;14.064;2023-02-15T01:38:25;63.90;;;22.38;;
73684;SDS011;61985;51.070;14.064;2023-02-15T01:40:51;54.63;;;21.70;;
73684;SDS011;61985;51.070;14.064;2023-02-15T01:43:18;61.05;;;22.88;;
73684;SDS011;61985;51.070;14.064;2023-02-15T01:45:43;64.82;;;23.52;;
73684;SDS011;61985;51.070;14.064;2023-02-15T01:48:24;57.72;;;20.98;;
73684;SDS011;61985;51.070;14.064;2023-02-15T01:50:53;61.58;;;22.15;;
73684;SDS011;61985;51.070;14.064;2023-02-15T01:53:22;66.05;;;24.15;;
73684;SDS011;61985;51.070;14.064;2023-02-15T01:56:05;61.03;;;23.25;;
73684;SDS011;61985;51.070;14.064;2023-02-15T01:58:34;63.58;;;22.35;;
73684;SDS011;61985;51.070;14.064;2023-02-15T02:01:00;58.75;;;23.60;;
73684;SDS011;61985;51.070;14.064;2023-02-15T02:06:12;56.33;;;22.75;;
73684;SDS011;61985;51.070;14.064;2023-02-15T02:08:37;58.65;;;23.10;;
73684;SDS011;61985;51.070;14.064;2023-02-15T02:11:08;61.70;;;22.88;;
73684;SDS011;61985;51.070;14.064;2023-02-15T02:13:35;60.63;;;24.08;;
73684;SDS011;61985;51.070;14.064;2023-02-15T02:16:04;65.03;;;23.58;;
73684;SDS011;61985;51.070;14.064;2023-02-15T02:18:46;54.17;;;20.85;;
73684;SDS011;61985;51.070;14.064;2023-02-15T02:35:12;64.80;;;23.25;;
73684;SDS011;61985;51.070;14.064;2023-02-15T02:40:16;54.03;;;20.80;;
73684;SDS011;61985;51.070;14.064;2023-02-15T02:43:35;64.43;;;22.05;;
73684;SDS011;61985;51.070;14.064;2023-02-15T02:45:59;55.25;;;20.75;;
73684;SDS011;61985;51.070;14.064;2023-02-15T02:48:40;55.85;;;20.83;;
73684;SDS011;61985;51.070;14.064;2023-02-15T02:51:05;57.33;;;21.05;;
73684;SDS011;61985;51.070;14.064;2023-02-15T02:53:31;56.35;;;21.63;;
73684;SDS011;61985;51.070;14.064;2023-02-15T02:58:38;60.75;;;21.17;;
73684;SDS011;61985;51.070;14.064;2023-02-15T03:03:52;59.38;;;20.38;;
73684;SDS011;61985;51.070;14.064;2023-02-15T03:06:32;50.35;;;19.55;;
73684;SDS011;61985;51.070;14.064;2023-02-15T03:09:06;52.88;;;21.33;;
73684;SDS011;61985;51.070;14.064;2023-02-15T03:11:40;52.90;;;20.45;;
73684;SDS011;61985;51.070;14.064;2023-02-15T03:14:07;53.45;;;18.92;;
73684;SDS011;61985;51.070;14.064;2023-02-15T03:16:32;51.70;;;19.63;;
73684;SDS011;61985;51.070;14.064;2023-02-15T03:19:00;52.03;;;20.17;;
73684;SDS011;61985;51.070;14.064;2023-02-15T03:21:50;53.42;;;19.67;;
73684;SDS011;61985;51.070;14.064;2023-02-15T03:24:39;57.30;;;21.73;;
73684;SDS011;61985;51.070;14.064;2023-02-15T03:27:15;53.67;;;20.83;;
73684;SDS011;61985;51.070;14.064;2023-02-15T03:29:45;57.05;;;20.85;;
73684;SDS011;61985;51.070;14.064;2023-02-15T03:32:14;50.92;;;19.20;;
73684;SDS011;61985;51.070;14.064;2023-02-15T03:34:41;60.03;;;22.02;;
73684;SDS011;61985;51.070;14.064;2023-02-15T03:37:13;58.38;;;20.70;;
73684;SDS011;61985;51.070;14.064;2023-02-15T03:39:57;57.63;;;22.63;;
73684;SDS011;61985;51.070;14.064;2023-02-15T03:42:44;49.25;;;18.70;;
73684;SDS011;61985;51.070;14.064;2023-02-15T03:45:14;53.17;;;19.98;;
73684;SDS011;61985;51.070;14.064;2023-02-15T03:47:44;62.83;;;20.95;;
73684;SDS011;61985;51.070;14.064;2023-02-15T03:50:15;57.33;;;21.92;;
73684;SDS011;61985;51.070;14.064;2023-02-15T03:53:03;55.33;;;21.15;;
73684;SDS011;61985;51.070;14.064;2023-02-15T03:55:31;49.72;;;18.75;;
73684;SDS011;61985;51.070;14.064;2023-02-15T03:57:56;46.78;;;16.48;;
73684;SDS011;61985;51.070;14.064;2023-02-15T04:00:42;49.35;;;19.10;;
73684;SDS011;61985;51.070;14.064;2023-02-15T04:03:42;48.72;;;18.20;;
73684;SDS011;61985;51.070;14.064;2023-02-15T04:06:10;52.20;;;18.75;;
73684;SDS011;61985;51.070;14.064;2023-02-15T04:08:35;54.90;;;20.10;;
73684;SDS011;61985;51.070;14.064;2023-02-15T04:11:19;47.15;;;18.77;;
73684;SDS011;61985;51.070;14.064;2023-02-15T04:13:45;53.17;;;20.42;;
73684;SDS011;61985;51.070;14.064;2023-02-15T04:16:10;52.20;;;19.50;;
73684;SDS011;61985;51.070;14.064;2023-02-15T04:18:39;51.50;;;19.75;;
73684;SDS011;61985;51.070;14.064;2023-02-15T04:21:25;50.20;;;18.92;;
73684;SDS011;61985;51.070;14.064;2023-02-15T04:24:11;50.22;;;17.33;;
73684;SDS011;61985;51.070;14.064;2023-02-15T04:26:55;53.55;;;19.23;;
73684;SDS011;61985;51.070;14.064;2023-02-15T04:29:22;52.90;;;17.92;;
73684;SDS011;61985;51.070;14.064;2023-02-15T04:31:48;57.45;;;20.42;;
73684;SDS011;61985;51.070;14.064;2023-02-15T04:34:14;51.20;;;18.30;;
73684;SDS011;61985;51.070;14.064;2023-02-15T04:36:40;51.20;;;18.42;;
73684;SDS011;61985;51.070;14.064;2023-02-15T04:39:06;50.97;;;18.33;;
73684;SDS011;61985;51.070;14.064;2023-02-15T04:41:32;51.60;;;18.50;;
73684;SDS011;61985;51.070;14.064;2023-02-15T04:43:57;57.80;;;18.92;;
73684;SDS011;61985;51.070;14.064;2023-02-15T04:46:24;48.00;;;17.35;;
73684;SDS011;61985;51.070;14.064;2023-02-15T04:48:50;50.38;;;18.45;;
73684;SDS011;61985;51.070;14.064;2023-02-15T04:51:15;54.28;;;18.02;;
73684;SDS011;61985;51.070;14.064;2023-02-15T04:53:40;43.55;;;17.08;;
73684;SDS011;61985;51.070;14.064;2023-02-15T04:56:06;52.22;;;17.52;;
73684;SDS011;61985;51.070;14.064;2023-02-15T04:58:31;45.08;;;16.42;;
73684;SDS011;61985;51.070;14.064;2023-02-15T05:00:56;50.15;;;17.95;;
73684;SDS011;61985;51.070;14.064;2023-02-15T05:03:23;42.80;;;16.95;;
73684;SDS011;61985;51.070;14.064;2023-02-15T05:05:48;43.13;;;16.10;;
73684;SDS011;61985;51.070;14.064;2023-02-15T05:08:13;46.75;;;17.55;;
73684;SDS011;61985;51.070;14.064;2023-02-15T05:10:39;49.47;;;18.48;;
73684;SDS011;61985;51.070;14.064;2023-02-15T05:13:04;47.30;;;16.45;;
73684;SDS011;61985;51.070;14.064;2023-02-15T05:15:30;47.80;;;16.10;;
73684;SDS011;61985;51.070;14.064;2023-02-15T05:17:55;48.28;;;17.88;;
73684;SDS011;61985;51.070;14.064;2023-02-15T05:20:20;43.25;;;15.35;;
73684;SDS011;61985;51.070;14.064;2023-02-15T05:22:46;51.03;;;16.95;;
73684;SDS011;61985;51.070;14.064;2023-02-15T05:25:11;43.50;;;16.33;;
73684;SDS011;61985;51.070;14.064;2023-02-15T05:27:55;40.50;;;13.52;;
73684;SDS011;61985;51.070;14.064;2023-02-15T05:30:39;43.85;;;14.05;;
73684;SDS011;61985;51.070;14.064;2023-02-15T05:33:05;53.13;;;17.10;;
73684;SDS011;61985;51.070;14.064;2023-02-15T05:35:31;46.35;;;15.80;;
73684;SDS011;61985;51.070;14.064;2023-02-15T05:37:57;43.85;;;16.73;;
73684;SDS011;61985;51.070;14.064;2023-02-15T05:40:22;44.22;;;14.52;;
73684;SDS011;61985;51.070;14.064;2023-02-15T05:42:48;46.17;;;15.68;;
73684;SDS011;61985;51.070;14.064;2023-02-15T05:45:13;41.58;;;17.10;;
73684;SDS011;61985;51.070;14.064;2023-02-15T05:47:38;41.17;;;15.88;;
73684;SDS011;61985;51.070;14.064;2023-02-15T05:50:04;44.75;;;15.38;;
73684;SDS011;61985;51.070;14.064;2023-02-15T05:52:29;38.75;;;13.15;;
73684;SDS011;61985;51.070;14.064;2023-02-15T05:54:55;39.45;;;13.93;;
73684;SDS011;61985;51.070;14.064;2023-02-15T05:57:20;52.00;;;16.60;;
73684;SDS011;61985;51.070;14.064;2023-02-15T05:59:45;35.42;;;14.63;;
73684;SDS011;61985;51.070;14.064;2023-02-15T06:02:10;45.97;;;15.20;;
73684;SDS011;61985;51.070;14.064;2023-02-15T06:04:37;35.40;;;13.38;;
73684;SDS011;61985;51.070;14.064;2023-02-15T06:07:02;43.28;;;15.63;;
73684;SDS011;61985;51.070;14.064;2023-02-15T06:09:27;43.15;;;15.07;;
73684;SDS011;61985;51.070;14.064;2023-02-15T06:11:52;37.50;;;14.38;;
73684;SDS011;61985;51.070;14.064;2023-02-15T06:14:18;36.28;;;14.77;;
73684;SDS011;61985;51.070;14.064;2023-02-15T06:16:43;43.25;;;14.48;;
73684;SDS011;61985;51.070;14.064;2023-02-15T06:19:09;42.05;;;15.52;;
73684;SDS011;61985;51.070;14.064;2023-02-15T06:21:34;45.55;;;14.65;;
73684;SDS011;61985;51.070;14.064;2023-02-15T06:23:59;50.90;;;16.33;;
73684;SDS011;61985;51.070;14.064;2023-02-15T06:26:25;37.42;;;13.85;;
73684;SDS011;61985;51.070;14.064;2023-02-15T06:28:50;30.92;;;12.98;;
73684;SDS011;61985;51.070;14.064;2023-02-15T06:31:15;40.75;;;13.57;;
73684;SDS011;61985;51.070;14.064;2023-02-15T06:33:41;50.35;;;15.63;;
73684;SDS011;61985;51.070;14.064;2023-02-15T06:36:06;37.67;;;14.52;;
73684;SDS011;61985;51.070;14.064;2023-02-15T06:38:32;35.80;;;13.30;;
73684;SDS011;61985;51.070;14.064;2023-02-15T06:40:57;40.53;;;13.77;;
73684;SDS011;61985;51.070;14.064;2023-02-15T06:43:23;37.08;;;13.02;;
73684;SDS011;61985;51.070;14.064;2023-02-15T06:45:49;39.70;;;16.00;;
73684;SDS011;61985;51.070;14.064;2023-02-15T06:48:14;41.90;;;13.73;;
73684;SDS011;61985;51.070;14.064;2023-02-15T06:50:40;43.40;;;15.63;;
73684;SDS011;61985;51.070;14.064;2023-02-15T06:53:05;40.45;;;14.45;;
73684;SDS011;61985;51.070;14.064;2023-02-15T06:55:31;34.08;;;12.00;;
73684;SDS011;61985;51.070;14.064;2023-02-15T06:57:56;35.30;;;12.70;;
73684;SDS011;61985;51.070;14.064;2023-02-15T07:00:22;37.67;;;13.05;;
73684;SDS011;61985;51.070;14.064;2023-02-15T07:02:52;37.38;;;13.55;;
73684;SDS011;61985;51.070;14.064;2023-02-15T07:05:23;35.63;;;14.13;;
73684;SDS011;61985;51.070;14.064;2023-02-15T07:07:58;33.33;;;13.13;;
73684;SDS011;61985;51.070;14.064;2023-02-15T07:10:25;33.83;;;12.95;;
73684;SDS011;61985;51.070;14.064;2023-02-15T07:12:51;37.83;;;13.73;;
73684;SDS011;61985;51.070;14.064;2023-02-15T07:15:17;32.35;;;12.95;;
73684;SDS011;61985;51.070;14.064;2023-02-15T07:17:45;35.03;;;12.52;;
73684;SDS011;61985;51.070;14.064;2023-02-15T07:20:18;35.63;;;15.15;;
73684;SDS011;61985;51.070;14.064;2023-02-15T07:22:45;27.50;;;11.40;;
73684;SDS011;61985;51.070;14.064;2023-02-15T07:25:11;35.55;;;14.75;;
73684;SDS011;61985;51.070;14.064;2023-02-15T07:27:37;36.08;;;13.45;;
73684;SDS011;61985;51.070;14.064;2023-02-15T07:30:03;37.65;;;14.05;;
73684;SDS011;61985;51.070;14.064;2023-02-15T07:32:30;44.85;;;14.75;;
73684;SDS011;61985;51.070;14.064;2023-02-15T07:34:57;36.22;;;13.35;;
73684;SDS011;61985;51.070;14.064;2023-02-15T07:37:23;38.13;;;13.45;;
73684;SDS011;61985;51.070;14.064;2023-02-15T07:39:49;35.25;;;12.63;;
73684;SDS011;61985;51.070;14.064;2023-02-15T07:42:17;36.05;;;15.20;;
73684;SDS011;61985;51.070;14.064;2023-02-15T07:44:44;38.97;;;13.52;;
73684;SDS011;61985;51.070;14.064;2023-02-15T07:47:10;26.85;;;9.93;;
73684;SDS011;61985;51.070;14.064;2023-02-15T07:49:35;41.22;;;15.35;;
73684;SDS011;61985;51.070;14.064;2023-02-15T07:52:00;35.72;;;13.25;;
73684;SDS011;61985;51.070;14.064;2023-02-15T07:54:26;37.28;;;14.02;;
73684;SDS011;61985;51.070;14.064;2023-02-15T07:56:52;33.40;;;12.25;;
73684;SDS011;61985;51.070;14.064;2023-02-15T07:59:17;35.60;;;12.90;;
73684;SDS011;61985;51.070;14.064;2023-02-15T08:01:42;39.55;;;15.40;;
73684;SDS011;61985;51.070;14.064;2023-02-15T08:04:07;32.83;;;14.07;;
73684;SDS011;61985;51.070;14.064;2023-02-15T08:06:35;40.65;;;16.23;;
73684;SDS011;61985;51.070;14.064;2023-02-15T08:09:05;34.95;;;13.45;;
73684;SDS011;61985;51.070;14.064;2023-02-15T08:11:32;29.25;;;9.75;;
73684;SDS011;61985;51.070;14.064;2023-02-15T08:14:09;39.63;;;14.20;;
73684;SDS011;61985;51.070;14.064;2023-02-15T08:21:35;32.60;;;13.23;;
73684;SDS011;61985;51.070;14.064;2023-02-15T08:24:03;36.45;;;14.95;;
73684;SDS011;61985;51.070;14.064;2023-02-15T08:26:30;31.52;;;13.73;;
73684;SDS011;61985;51.070;14.064;2023-02-15T08:28:58;35.53;;;13.02;;
73684;SDS011;61985;51.070;14.064;2023-02-15T08:31:24;34.33;;;12.73;;
73684;SDS011;61985;51.070;14.064;2023-02-15T08:33:50;35.70;;;13.77;;
73684;SDS011;61985;51.070;14.064;2023-02-15T08:36:17;35.80;;;13.20;;
73684;SDS011;61985;51.070;14.064;2023-02-15T08:38:44;30.33;;;12.40;;
73684;SDS011;61985;51.070;14.064;2023-02-15T08:41:20;33.10;;;13.35;;
73684;SDS011;61985;51.070;14.064;2023-02-15T08:43:52;37.75;;;14.73;;
73684;SDS011;61985;51.070;14.064;2023-02-15T08:46:19;37.65;;;14.10;;
73684;SDS011;61985;51.070;14.064;2023-02-15T08:48:45;43.92;;;15.50;;
73684;SDS011;61985;51.070;14.064;2023-02-15T08:51:12;38.92;;;15.40;;
73684;SDS011;61985;51.070;14.064;2023-02-15T08:53:40;47.95;;;17.80;;
73684;SDS011;61985;51.070;14.064;2023-02-15T08:56:09;52.00;;;20.70;;
73684;SDS011;61985;51.070;14.064;2023-02-15T08:58:35;67.05;;;24.88;;
73684;SDS011;61985;51.070;14.064;2023-02-15T09:01:00;45.15;;;14.88;;
73684;SDS011;61985;51.070;14.064;2023-02-15T09:06:58;37.22;;;16.63;;
73684;SDS011;61985;51.070;14.064;2023-02-15T09:09:23;37.83;;;16.17;;
73684;SDS011;61985;51.070;14.064;2023-02-15T09:11:49;37.38;;;15.45;;
73684;SDS011;61985;51.070;14.064;2023-02-15T09:14:17;36.20;;;13.90;;
73684;SDS011;61985;51.070;14.064;2023-02-15T09:16:45;33.28;;;15.52;;
73684;SDS011;61985;51.070;14.064;2023-02-15T09:19:22;42.67;;;14.88;;
73684;SDS011;61985;51.070;14.064;2023-02-15T09:21:48;45.15;;;18.45;;
73684;SDS011;61985;51.070;14.064;2023-02-15T09:24:14;41.75;;;17.48;;
73684;SDS011;61985;51.070;14.064;2023-02-15T09:26:42;42.45;;;14.65;;
73684;SDS011;61985;51.070;14.064;2023-02-15T09:29:09;38.05;;;16.08;;
73684;SDS011;61985;51.070;14.064;2023-02-15T09:31:42;46.55;;;17.80;;
73684;SDS011;61985;51.070;14.064;2023-02-15T09:34:10;43.40;;;17.70;;
73684;SDS011;61985;51.070;14.064;2023-02-15T09:36:41;46.30;;;17.30;;
73684;SDS011;61985;51.070;14.064;2023-02-15T09:52:43;68.85;;;25.20;;
73684;SDS011;61985;51.070;14.064;2023-02-15T09:55:38;51.78;;;19.90;;
73684;SDS011;61985;51.070;14.064;2023-02-15T09:58:13;47.22;;;19.20;;
73684;SDS011;61985;51.070;14.064;2023-02-15T10:09:23;41.40;;;16.73;;
73684;SDS011;61985;51.070;14.064;2023-02-15T10:18:38;51.05;;;18.70;;
73684;SDS011;61985;51.070;14.064;2023-02-15T10:26:46;53.55;;;21.40;;
73684;SDS011;61985;51.070;14.064;2023-02-15T10:34:36;46.20;;;19.00;;
73684;SDS011;61985;51.070;14.064;2023-02-15T10:41:09;37.83;;;16.52;;
73684;SDS011;61985;51.070;14.064;2023-02-15T10:44:04;42.63;;;18.45;;
73684;SDS011;61985;51.070;14.064;2023-02-15T10:46:25;40.35;;;15.85;;
73684;SDS011;61985;51.070;14.064;2023-02-15T10:51:55;48.40;;;21.35;;
73684;SDS011;61985;51.070;14.064;2023-02-15T10:54:28;47.70;;;17.55;;
73684;SDS011;61985;51.070;14.064;2023-02-15T11:02:19;42.20;;;19.30;;
73684;SDS011;61985;51.070;14.064;2023-02-15T11:07:41;40.65;;;15.60;;
73684;SDS011;61985;51.070;14.064;2023-02-15T11:10:24;41.63;;;16.42;;
73684;SDS011;61985;51.070;14.064;2023-02-15T11:12:54;48.00;;;18.23;;
73684;SDS011;61985;51.070;14.064;2023-02-15T11:15:32;43.33;;;18.17;;
73684;SDS011;61985;51.070;14.064;2023-02-15T11:18:21;52.40;;;21.63;;
73684;SDS011;61985;51.070;14.064;2023-02-15T11:21:07;37.15;;;15.80;;
73684;SDS011;61985;51.070;14.064;2023-02-15T11:23:35;47.03;;;18.73;;
73684;SDS011;61985;51.070;14.064;2023-02-15T11:26:09;41.83;;;17.35;;
73684;SDS011;61985;51.070;14.064;2023-02-15T11:29:21;44.58;;;16.63;;
73684;SDS011;61985;51.070;14.064;2023-02-15T11:31:43;47.85;;;18.13;;
73684;SDS011;61985;51.070;14.064;2023-02-15T11:34:16;40.25;;;16.92;;
73684;SDS011;61985;51.070;14.064;2023-02-15T11:36:50;42.60;;;18.02;;
73684;SDS011;61985;51.070;14.064;2023-02-15T11:39:26;38.15;;;14.85;;
73684;SDS011;61985;51.070;14.064;2023-02-15T11:41:55;36.35;;;15.85;;
73684;SDS011;61985;51.070;14.064;2023-02-15T11:44:26;40.45;;;17.90;;
73684;SDS011;61985;51.070;14.064;2023-02-15T11:46:57;48.65;;;19.23;;
73684;SDS011;61985;51.070;14.064;2023-02-15T11:49:33;45.75;;;18.70;;
73684;SDS011;61985;51.070;14.064;2023-02-15T11:52:00;44.17;;;19.23;;
73684;SDS011;61985;51.070;14.064;2023-02-15T11:54:36;44.72;;;19.73;;
73684;SDS011;61985;51.070;14.064;2023-02-15T12:00:39;41.78;;;17.45;;
73684;SDS011;61985;51.070;14.064;2023-02-15T12:03:10;39.85;;;17.25;;
73684;SDS011;61985;51.070;14.064;2023-02-15T12:05:42;38.22;;;14.93;;
73684;SDS011;61985;51.070;14.064;2023-02-15T12:08:16;43.15;;;16.20;;
73684;SDS011;61985;51.070;14.064;2023-02-15T12:13:25;42.28;;;17.75;;
73684;SDS011;61985;51.070;14.064;2023-02-15T12:15:52;48.00;;;19.10;;
73684;SDS011;61985;51.070;14.064;2023-02-15T12:18:32;37.15;;;15.52;;
73684;SDS011;61985;51.070;14.064;2023-02-15T12:21:02;38.85;;;15.93;;
73684;SDS011;61985;51.070;14.064;2023-02-15T12:23:42;41.70;;;16.90;;
73684;SDS011;61985;51.070;14.064;2023-02-15T12:26:13;44.13;;;17.60;;
73684;SDS011;61985;51.070;14.064;2023-02-15T12:28:42;53.70;;;19.23;;
73684;SDS011;61985;51.070;14.064;2023-02-15T12:31:21;42.00;;;18.15;;
73684;SDS011;61985;51.070;14.064;2023-02-15T12:33:52;48.55;;;16.42;;
73684;SDS011;61985;51.070;14.064;2023-02-15T12:36:27;40.72;;;18.77;;
73684;SDS011;61985;51.070;14.064;2023-02-15T12:41:32;38.45;;;17.20;;
73684;SDS011;61985;51.070;14.064;2023-02-15T12:44:17;43.63;;;19.20;;
73684;SDS011;61985;51.070;14.064;2023-02-15T12:46:58;43.13;;;18.08;;
73684;SDS011;61985;51.070;14.064;2023-02-15T12:49:26;39.35;;;15.85;;
73684;SDS011;61985;51.070;14.064;2023-02-15T12:51:57;46.22;;;17.98;;
73684;SDS011;61985;51.070;14.064;2023-02-15T12:56:59;45.50;;;17.50;;
73684;SDS011;61985;51.070;14.064;2023-02-15T12:59:47;42.70;;;17.83;;
73684;SDS011;61985;51.070;14.064;2023-02-15T13:05:20;42.63;;;17.48;;
73684;SDS011;61985;51.070;14.064;2023-02-15T13:08:01;45.00;;;19.48;;
73684;SDS011;61985;51.070;14.064;2023-02-15T13:13:27;46.13;;;17.92;;
73684;SDS011;61985;51.070;14.064;2023-02-15T13:16:03;45.35;;;17.23;;
73684;SDS011;61985;51.070;14.064;2023-02-15T13:18:37;45.10;;;18.58;;
73684;SDS011;61985;51.070;14.064;2023-02-15T13:21:11;48.13;;;19.17;;
73684;SDS011;61985;51.070;14.064;2023-02-15T13:23:40;41.03;;;18.17;;
73684;SDS011;61985;51.070;14.064;2023-02-15T13:26:11;44.08;;;18.85;;
73684;SDS011;61985;51.070;14.064;2023-02-15T13:28:46;48.88;;;18.98;;
73684;SDS011;61985;51.070;14.064;2023-02-15T13:31:14;41.45;;;16.75;;
73684;SDS011;61985;51.070;14.064;2023-02-15T13:33:44;39.10;;;17.33;;
73684;SDS011;61985;51.070;14.064;2023-02-15T13:36:23;43.17;;;15.68;;
73684;SDS011;61985;51.070;14.064;2023-02-15T13:38:55;41.90;;;17.42;;
73684;SDS011;61985;51.070;14.064;2023-02-15T13:41:29;39.85;;;16.95;;
73684;SDS011;61985;51.070;14.064;2023-02-15T13:52:22;48.10;;;19.10;;
73684;SDS011;61985;51.070;14.064;2023-02-15T14:00:30;37.90;;;15.98;;
73684;SDS011;61985;51.070;14.064;2023-02-15T14:03:03;39.60;;;17.02;;
73684;SDS011;61985;51.070;14.064;2023-02-15T14:05:33;46.78;;;21.10;;
73684;SDS011;61985;51.070;14.064;2023-02-15T14:11:15;37.65;;;16.42;;
73684;SDS011;61985;51.070;14.064;2023-02-15T14:16:23;46.63;;;19.58;;
73684;SDS011;61985;51.070;14.064;2023-02-15T14:22:14;52.63;;;20.65;;
73684;SDS011;61985;51.070;14.064;2023-02-15T14:25:02;48.53;;;18.38;;
73684;SDS011;61985;51.070;14.064;2023-02-15T14:30:58;45.83;;;18.48;;
73684;SDS011;61985;51.070;14.064;2023-02-15T14:36:03;40.95;;;17.52;;
73684;SDS011;61985;51.070;14.064;2023-02-15T14:41:03;43.50;;;18.77;;
73684;SDS011;61985;51.070;14.064;2023-02-15T14:43:48;40.67;;;17.42;;
73684;SDS011;61985;51.070;14.064;2023-02-15T14:46:36;53.58;;;22.13;;
73684;SDS011;61985;51.070;14.064;2023-02-15T14:49:13;62.40;;;23.25;;
73684;SDS011;61985;51.070;14.064;2023-02-15T16:19:43;51.83;;;17.85;;
73684;SDS011;61985;51.070;14.064;2023-02-15T16:22:10;54.28;;;19.05;;
73684;SDS011;61985;51.070;14.064;2023-02-15T16:27:38;54.22;;;18.13;;
73684;SDS011;61985;51.070;14.064;2023-02-15T16:32:55;66.32;;;20.42;;
73684;SDS011;61985;51.070;14.064;2023-02-15T16:35:29;64.22;;;20.25;;
73684;SDS011;61985;51.070;14.064;2023-02-15T16:37:55;57.70;;;19.80;;
73684;SDS011;61985;51.070;14.064;2023-02-15T16:42:52;57.15;;;20.52;;
73684;SDS011;61985;51.070;14.064;2023-02-15T16:45:20;56.45;;;18.77;;
73684;SDS011;61985;51.070;14.064;2023-02-15T16:47:51;51.08;;;19.85;;
73684;SDS011;61985;51.070;14.064;2023-02-15T16:50:21;61.03;;;20.77;;
73684;SDS011;61985;51.070;14.064;2023-02-15T16:52:49;55.05;;;18.27;;
73684;SDS011;61985;51.070;14.064;2023-02-15T16:55:20;51.53;;;18.92;;
73684;SDS011;61985;51.070;14.064;2023-02-15T16:57:47;63.95;;;19.23;;
73684;SDS011;61985;51.070;14.064;2023-02-15T17:00:20;53.88;;;19.00;;
73684;SDS011;61985;51.070;14.064;2023-02-15T17:02:58;62.20;;;20.77;;
73684;SDS011;61985;51.070;14.064;2023-02-15T17:05:28;57.90;;;18.98;;
73684;SDS011;61985;51.070;14.064;2023-02-15T17:10:42;59.58;;;19.58;;
73684;SDS011;61985;51.070;14.064;2023-02-15T17:13:14;57.45;;;18.23;;
73684;SDS011;61985;51.070;14.064;2023-02-15T17:16:27;62.55;;;20.77;;
73684;SDS011;61985;51.070;14.064;2023-02-15T17:18:30;56.67;;;18.27;;
73684;SDS011;61985;51.070;14.064;2023-02-15T17:21:01;55.35;;;19.00;;
73684;SDS011;61985;51.070;14.064;2023-02-15T17:23:36;52.92;;;18.48;;
73684;SDS011;61985;51.070;14.064;2023-02-15T17:29:50;51.38;;;19.23;;
73684;SDS011;61985;51.070;14.064;2023-02-15T17:32:05;51.30;;;17.88;;
73684;SDS011;61985;51.070;14.064;2023-02-15T17:39:54;62.55;;;21.65;;
73684;SDS011;61985;51.070;14.064;2023-02-15T17:42:20;61.90;;;19.25;;
73684;SDS011;61985;51.070;14.064;2023-02-15T17:44:45;60.05;;;19.80;;
73684;SDS011;61985;51.070;14.064;2023-02-15T17:47:18;58.15;;;20.65;;
73684;SDS011;61985;51.070;14.064;2023-02-15T17:49:46;48.95;;;19.08;;
73684;SDS011;61985;51.070;14.064;2023-02-15T17:52:14;60.50;;;18.08;;
73684;SDS011;61985;51.070;14.064;2023-02-15T17:54:41;64.55;;;21.23;;
73684;SDS011;61985;51.070;14.064;2023-02-15T17:57:25;55.63;;;18.77;;
73684;SDS011;61985;51.070;14.064;2023-02-15T17:59:51;50.30;;;18.67;;
73684;SDS011;61985;51.070;14.064;2023-02-15T18:02:35;58.28;;;19.42;;
73684;SDS011;61985;51.070;14.064;2023-02-15T18:05:19;66.28;;;21.60;;
73684;SDS011;61985;51.070;14.064;2023-02-15T18:08:04;55.45;;;19.13;;
73684;SDS011;61985;51.070;14.064;2023-02-15T18:10:53;64.00;;;20.67;;
73684;SDS011;61985;51.070;14.064;2023-02-15T18:13:37;53.10;;;18.58;;
73684;SDS011;61985;51.070;14.064;2023-02-15T18:16:02;68.13;;;20.60;;
73684;SDS011;61985;51.070;14.064;2023-02-15T18:18:28;56.63;;;19.35;;
73684;SDS011;61985;51.070;14.064;2023-02-15T18:20:53;57.90;;;20.30;;
73684;SDS011;61985;51.070;14.064;2023-02-15T18:23:18;76.03;;;23.15;;
73684;SDS011;61985;51.070;14.064;2023-02-15T18:25:44;60.75;;;22.13;;
73684;SDS011;61985;51.070;14.064;2023-02-15T18:28:09;61.05;;;20.05;;
73684;SDS011;61985;51.070;14.064;2023-02-15T18:30:34;60.08;;;20.40;;